Parkin, Arkansas
Current Conditions -  °F | °C
As of 4:02 AM on Wednesday 26 Nov 2014 (Local Time) from KAWM Reporting Station
Haze Haze  
Wind Chill: 25°   Ceiling: Unl
Heat Index: 30°   Visibility: 3mi
Dew Point: 30°   Wind: 5mph
Humidity: 100%   Direction: 190°S
Pressure: 30.13"   Gusts: NA
Location:  35.26°N, 90.57°W
Report Text: KAWM 261002Z AUTO 19004KT 3SM BR CLR M01/M01 A3013 RMK AO2 T10111011
Loading
Personal Weather Stations






























Interactive Weather Map New forecast layout! Learn more

10-Day Weather Forecast

Advertisements
Track Severe Weather on mobile